createdAt,value
2022-08-20T00:00:15.757Z,6.13
2022-08-20T00:04:39.573Z,5.38
2022-08-20T00:08:42.645Z,5.72
2022-08-20T00:12:49.251Z,6.20
2022-08-20T00:16:51.366Z,5.60
2022-08-20T00:20:56.222Z,6.32
2022-08-20T00:24:58.375Z,5.78
2022-08-20T00:29:00.794Z,6.20
2022-08-20T00:33:13.892Z,6.25
2022-08-20T00:37:16.283Z,5.78
2022-08-20T00:41:24.874Z,6.13
2022-08-20T00:45:30.332Z,5.28
2022-08-20T00:49:33.324Z,5.95
2022-08-20T00:53:36.664Z,5.72
2022-08-20T00:57:59.135Z,6.10
2022-08-20T01:02:09.718Z,6.47
2022-08-20T01:06:12.104Z,6.07
2022-08-20T01:10:20.006Z,6.30
2022-08-20T01:14:22.482Z,6.57
2022-08-20T01:18:28.315Z,6.10
2022-08-20T01:23:13.614Z,6.00
2022-08-20T01:27:16.180Z,6.50
2022-08-20T01:31:21.777Z,6.75
2022-08-20T01:35:26.613Z,6.90
2022-08-20T01:39:33.182Z,6.15
2022-08-20T01:43:37.286Z,5.57
2022-08-20T01:47:40.581Z,6.22
2022-08-20T01:51:49.545Z,7.22
2022-08-20T01:55:51.645Z,6.43
2022-08-20T01:59:53.977Z,6.03
2022-08-20T02:03:56.962Z,6.32
2022-08-20T02:08:00.505Z,7.65
2022-08-20T02:12:06.204Z,6.22
2022-08-20T02:16:09.130Z,6.53
2022-08-20T02:20:16.055Z,6.40
2022-08-20T02:24:19.668Z,7.82
2022-08-20T02:28:21.845Z,6.85
2022-08-20T02:32:33.766Z,6.95
2022-08-20T02:36:38.123Z,7.25
2022-08-20T02:40:41.146Z,7.25
2022-08-20T02:44:43.795Z,7.47
2022-08-20T02:48:46.202Z,7.75
2022-08-20T02:52:51.629Z,7.00
2022-08-20T02:56:54.586Z,6.55
2022-08-20T03:00:57.117Z,6.85
2022-08-20T03:04:59.505Z,7.05
2022-08-20T03:09:04.475Z,7.13
2022-08-20T03:13:12.362Z,7.30
2022-08-20T03:17:14.554Z,8.30
2022-08-20T03:21:16.925Z,7.35
2022-08-20T03:25:19.441Z,7.10
2022-08-20T03:29:21.691Z,8.30
2022-08-20T03:33:24.325Z,7.68
2022-08-20T03:37:31.195Z,8.27
2022-08-20T03:41:33.424Z,8.02
2022-08-20T03:45:37.363Z,8.13
2022-08-20T03:49:39.643Z,7.90
2022-08-20T03:53:42.099Z,8.18
2022-08-20T03:57:47.558Z,7.78
2022-08-20T04:01:49.886Z,7.90
2022-08-20T04:05:52.826Z,7.32
2022-08-20T04:09:56.553Z,8.85
2022-08-20T04:13:58.605Z,8.27
2022-08-20T04:18:01.802Z,8.20
2022-08-20T04:22:04.070Z,7.57
2022-08-20T04:26:06.946Z,8.52
2022-08-20T04:30:11.195Z,8.68
2022-08-20T04:34:13.542Z,8.00
2022-08-20T04:38:18.436Z,7.97
2022-08-20T04:42:20.696Z,8.23
2022-08-20T04:46:26.144Z,8.18
2022-08-20T04:50:28.536Z,8.55
2022-08-20T04:54:31.584Z,9.18
2022-08-20T04:58:37.168Z,8.52
2022-08-20T05:02:39.347Z,8.05
2022-08-20T05:06:41.865Z,7.95
2022-08-20T05:10:46.152Z,8.00
2022-08-20T05:14:48.495Z,8.40
2022-08-20T05:18:52.992Z,8.02
2022-08-20T05:22:56.559Z,8.32
2022-08-20T05:27:00.905Z,7.82
2022-08-20T05:31:03.388Z,8.60
2022-08-20T05:35:09.762Z,8.65
2022-08-20T05:39:13.526Z,9.10
2022-08-20T05:43:16.328Z,8.57
2022-08-20T05:47:18.690Z,8.27
2022-08-20T05:51:20.842Z,7.78
2022-08-20T05:55:24.409Z,8.25
2022-08-20T05:59:27.934Z,7.88
2022-08-20T06:03:49.199Z,7.68
2022-08-20T06:07:53.615Z,7.53
2022-08-20T06:11:59.491Z,8.52
2022-08-20T06:16:02.036Z,8.05
2022-08-20T06:20:10.102Z,7.28
2022-08-20T06:24:12.903Z,7.90
2022-08-20T06:28:15.235Z,8.00
2022-08-20T06:32:18.853Z,7.75
2022-08-20T06:36:22.464Z,8.88
2022-08-20T06:40:28.675Z,8.65
2022-08-20T06:44:31.832Z,8.70
2022-08-20T06:48:34.202Z,8.80
2022-08-20T06:52:52.681Z,8.25
2022-08-20T06:56:55.266Z,9.32
2022-08-20T07:00:58.770Z,9.23
2022-08-20T07:05:05.444Z,8.38
2022-08-20T07:09:08.384Z,8.00
2022-08-20T07:13:12.336Z,7.70
2022-08-20T07:17:15.036Z,7.88
2022-08-20T07:21:17.632Z,7.13
2022-08-20T07:25:21.951Z,8.40
2022-08-20T07:29:44.037Z,7.10
2022-08-20T07:33:46.358Z,6.35
2022-08-20T07:37:51.642Z,8.00
2022-08-20T07:42:03.463Z,8.02
2022-08-20T07:46:11.797Z,7.60
2022-08-20T07:50:20.449Z,7.53
2022-08-20T07:54:22.645Z,8.27
2022-08-20T07:58:29.614Z,7.63
2022-08-20T08:02:36.838Z,6.75
2022-08-20T08:06:40.910Z,8.35
2022-08-20T08:10:44.346Z,7.55
2022-08-20T08:15:02.488Z,7.47
2022-08-20T08:19:09.196Z,7.60
2022-08-20T08:23:13.711Z,7.80
2022-08-20T08:27:34.696Z,6.95
2022-08-20T08:31:36.959Z,7.25
2022-08-20T08:35:41.427Z,8.23
2022-08-20T08:39:44.449Z,6.95
2022-08-20T08:43:50.599Z,6.60
2022-08-20T08:47:54.973Z,6.38
2022-08-20T08:52:05.844Z,6.30
2022-08-20T08:56:10.267Z,6.22
2022-08-20T09:00:16.672Z,6.78
2022-08-20T09:04:22.070Z,5.90
2022-08-20T09:08:29.497Z,6.78
2022-08-20T09:12:33.429Z,5.95
2022-08-20T09:16:52.494Z,5.90
2022-08-20T09:20:56.003Z,5.88
2022-08-20T09:24:59.428Z,6.07
2022-08-20T09:29:01.936Z,6.13
2022-08-20T09:33:04.708Z,5.50
2022-08-20T09:37:07.740Z,6.10
2022-08-20T09:41:10.125Z,6.82
2022-08-20T09:45:13.257Z,6.13
2022-08-20T09:49:15.405Z,5.75
2022-08-20T09:53:20.234Z,5.78
2022-08-20T09:57:22.890Z,6.30
2022-08-20T10:01:25.263Z,5.78
2022-08-20T10:05:28.125Z,5.95
2022-08-20T10:09:30.472Z,5.72
2022-08-20T10:13:32.675Z,6.43
2022-08-20T10:17:39.427Z,5.55
2022-08-20T10:21:41.657Z,5.88
2022-08-20T10:25:44.636Z,5.70
2022-08-20T10:29:47.182Z,5.30
2022-08-20T10:33:49.611Z,4.97
2022-08-20T10:37:52.026Z,5.28
2022-08-20T10:41:54.343Z,5.43
2022-08-20T10:45:56.945Z,5.35
2022-08-20T10:50:02.396Z,5.22
2022-08-20T10:54:06.326Z,5.20
2022-08-20T10:58:15.679Z,5.03
2022-08-20T11:02:19.399Z,5.38
2022-08-20T11:06:22.455Z,4.88
2022-08-20T11:10:34.012Z,4.85
2022-08-20T11:14:36.495Z,5.47
2022-08-20T11:18:38.600Z,4.63
2022-08-20T11:22:40.762Z,5.28
2022-08-20T11:26:43.920Z,5.18
2022-08-20T11:30:47.638Z,4.80
2022-08-20T11:34:50.731Z,4.55
2022-08-20T11:38:53.649Z,5.53
2022-08-20T11:43:14.198Z,5.78
2022-08-20T11:47:24.580Z,5.13
2022-08-20T11:51:26.661Z,4.43
2022-08-20T11:55:30.332Z,5.85
2022-08-20T11:59:33.330Z,5.45
2022-08-20T12:03:36.260Z,4.72
2022-08-20T12:07:38.751Z,4.53
2022-08-20T12:11:41.226Z,5.28
2022-08-20T12:15:44.543Z,4.60
2022-08-20T12:19:47.790Z,5.90
2022-08-20T12:23:49.996Z,4.20
2022-08-20T12:27:52.640Z,4.72
2022-08-20T12:31:54.866Z,5.18
2022-08-20T12:35:58.410Z,4.60
2022-08-20T12:40:02.476Z,4.90
2022-08-20T12:44:07.230Z,4.40
2022-08-20T12:48:15.938Z,4.30
2022-08-20T12:52:20.522Z,5.57
2022-08-20T12:56:22.685Z,5.00
2022-08-20T13:00:35.838Z,4.97
2022-08-20T13:04:37.980Z,5.75
2022-08-20T13:08:40.556Z,4.82
2022-08-20T13:12:42.785Z,4.82
2022-08-20T13:16:45.108Z,5.22
2022-08-20T13:20:48.131Z,5.35
2022-08-20T13:24:50.552Z,5.60
2022-08-20T13:28:52.838Z,6.45
2022-08-20T13:32:55.409Z,4.70
2022-08-20T13:36:57.685Z,4.90
2022-08-20T13:41:00.088Z,5.05
2022-08-20T13:45:02.752Z,4.90
2022-08-20T13:49:05.050Z,5.07
2022-08-20T13:53:07.384Z,4.97
2022-08-20T13:57:13.321Z,4.70
2022-08-20T14:01:15.510Z,4.85
2022-08-20T14:05:19.370Z,4.32
2022-08-20T14:09:21.746Z,5.50
2022-08-20T14:13:26.740Z,4.53
2022-08-20T14:17:32.266Z,4.90
2022-08-20T14:21:34.682Z,4.93
2022-08-20T14:25:36.885Z,4.25
2022-08-20T14:29:42.436Z,5.25
2022-08-20T14:33:44.869Z,5.15
2022-08-20T14:37:52.371Z,5.38
2022-08-20T14:41:54.452Z,4.37
2022-08-20T14:45:56.638Z,4.95
2022-08-20T14:50:05.441Z,4.80
2022-08-20T14:54:07.706Z,5.47
2022-08-20T14:58:12.186Z,4.50
2022-08-20T15:02:16.749Z,5.50
2022-08-20T15:06:21.983Z,4.70
2022-08-20T15:10:31.347Z,5.15
2022-08-20T15:14:33.355Z,5.07
2022-08-20T15:18:35.888Z,4.88
2022-08-20T15:22:39.563Z,4.60
2022-08-20T15:26:42.521Z,5.53
2022-08-20T15:30:44.595Z,4.63
2022-08-20T15:34:47.168Z,4.75
2022-08-20T15:38:49.298Z,4.88
2022-08-20T15:42:51.856Z,5.20
2022-08-20T15:46:54.063Z,4.85
2022-08-20T15:51:15.005Z,5.80
2022-08-20T15:55:17.727Z,4.70
2022-08-20T15:59:46.075Z,5.07
2022-08-20T16:04:01.781Z,4.43
2022-08-20T16:08:29.795Z,5.22
2022-08-20T16:12:38.488Z,4.53
2022-08-20T16:16:46.635Z,4.38
2022-08-20T16:20:51.894Z,5.20
2022-08-20T16:24:56.463Z,5.10
2022-08-20T16:29:06.027Z,5.30
2022-08-20T16:33:43.090Z,4.93
2022-08-20T16:38:08.146Z,5.10
2022-08-20T16:42:10.956Z,5.63
2022-08-20T16:46:18.754Z,4.70
2022-08-20T16:50:34.606Z,4.60
2022-08-20T16:54:36.634Z,4.80
2022-08-20T16:58:39.040Z,5.35
2022-08-20T17:02:52.404Z,4.97
2022-08-20T17:06:59.176Z,5.70
2022-08-20T17:11:09.793Z,5.95
2022-08-20T17:15:21.362Z,4.60
2022-08-20T17:19:31.747Z,4.70
2022-08-20T17:23:54.725Z,4.25
2022-08-20T17:28:00.558Z,5.13
2022-08-20T17:32:24.546Z,4.57
2022-08-20T17:36:27.337Z,5.38
2022-08-20T17:40:49.817Z,5.18
2022-08-20T17:44:55.677Z,4.97
2022-08-20T17:49:02.097Z,5.45
2022-08-20T17:53:37.400Z,5.30
2022-08-20T17:57:45.050Z,5.18
2022-08-20T18:01:47.218Z,5.30
2022-08-20T18:06:08.802Z,5.20
2022-08-20T18:10:16.311Z,4.82
2022-08-20T18:14:43.270Z,5.17
2022-08-20T18:18:57.751Z,4.57
2022-08-20T18:23:05.444Z,4.78
2022-08-20T18:27:14.010Z,4.88
2022-08-20T18:31:45.190Z,4.22
2022-08-20T18:35:47.231Z,5.10
2022-08-20T18:39:51.171Z,4.05
2022-08-20T18:44:05.584Z,4.63
2022-08-20T18:48:08.458Z,4.78
2022-08-20T18:52:26.184Z,4.30
2022-08-20T18:56:42.012Z,4.07
2022-08-20T19:00:50.027Z,3.90
2022-08-20T19:05:02.278Z,4.07
2022-08-20T19:09:15.173Z,4.15
2022-08-20T19:13:46.235Z,3.60
2022-08-20T19:18:10.922Z,3.67
2022-08-20T19:22:19.194Z,4.10
2022-08-20T19:26:25.067Z,4.00
2022-08-20T19:30:41.495Z,4.07
2022-08-20T19:34:50.881Z,3.72
2022-08-20T19:38:55.599Z,3.70
2022-08-20T19:43:03.786Z,3.80
2022-08-20T19:47:17.969Z,3.95
2022-08-20T19:51:40.723Z,4.07
2022-08-20T19:55:58.659Z,4.07
2022-08-20T20:00:13.057Z,3.72
2022-08-20T20:04:18.237Z,4.18
2022-08-20T20:08:22.524Z,3.72
2022-08-20T20:12:25.290Z,3.70
2022-08-20T20:16:30.608Z,3.60
2022-08-20T20:20:57.088Z,3.72
2022-08-20T20:25:21.453Z,3.83
2022-08-20T20:29:28.569Z,3.35
2022-08-20T20:33:35.970Z,3.80
2022-08-20T20:37:49.872Z,3.45
2022-08-20T20:41:55.506Z,3.63
2022-08-20T20:46:15.927Z,3.83
2022-08-20T20:50:30.425Z,3.45
2022-08-20T20:54:42.810Z,3.53
2022-08-20T20:58:53.747Z,3.67
2022-08-20T21:02:58.362Z,3.50
2022-08-20T21:07:10.377Z,3.75
2022-08-20T21:11:12.590Z,3.35
2022-08-20T21:15:14.743Z,3.65
2022-08-20T21:19:17.779Z,4.03
2022-08-20T21:23:19.867Z,4.20
2022-08-20T21:27:46.302Z,3.65
2022-08-20T21:31:48.423Z,3.85
2022-08-20T21:35:52.070Z,4.32
2022-08-20T21:39:54.262Z,4.15
2022-08-20T21:43:56.854Z,4.38
2022-08-20T21:47:59.259Z,4.43
2022-08-20T21:52:02.266Z,3.60
2022-08-20T21:56:05.202Z,4.35
2022-08-20T22:00:17.511Z,3.90
2022-08-20T22:04:19.912Z,4.10
2022-08-20T22:08:26.062Z,4.60
2022-08-20T22:12:30.655Z,4.37
2022-08-20T22:16:32.946Z,4.22
2022-08-20T22:20:35.696Z,4.65
2022-08-20T22:24:39.090Z,3.75
2022-08-20T22:28:41.261Z,4.25
2022-08-20T22:32:52.315Z,4.78
2022-08-20T22:36:57.642Z,4.53
2022-08-20T22:40:59.907Z,4.20
2022-08-20T22:45:02.142Z,4.20
2022-08-20T22:49:07.246Z,4.40
2022-08-20T22:53:10.485Z,4.65
2022-08-20T22:57:14.726Z,4.65
2022-08-20T23:01:17.045Z,4.78
2022-08-20T23:05:23.311Z,3.75
2022-08-20T23:09:26.746Z,4.90
2022-08-20T23:13:29.117Z,4.50
2022-08-20T23:17:31.283Z,4.88
2022-08-20T23:21:33.927Z,4.28
2022-08-20T23:25:36.282Z,5.05
2022-08-20T23:29:38.903Z,4.50
2022-08-20T23:33:44.684Z,4.97
2022-08-20T23:37:53.022Z,5.25
2022-08-20T23:41:56.005Z,4.85
2022-08-20T23:46:02.244Z,5.28
2022-08-20T23:50:06.556Z,5.22
2022-08-20T23:54:09.142Z,5.05
2022-08-20T23:58:11.366Z,5.07
